My Profile
  1. Member Settings
  2. My Devices
  3. Sign Out
        More Settings
      Elev 3353 ft, 37.104 °N 113.312 °W

      Hurricane, UT

      Summary

      Temperature (°F)MaxAverageMin
      Max Temperature109103.2591
      Avg Temperature100.590.9980.63
      Min Temperature9178.567
      Precipitation (in)MaxAverageMinSum
      Precipitation0.410.0100.45
      Dew Point (°F)MaxAverageMin
      Dew Point62.2246.3818.5
      Wind (mph)MaxAverageMin
      Wind4321.7210
      Gust Wind5125.0416
      Sea Level Pressure (in)MaxAverageMin
      Sea Level Pressure27.0126.9526.85

      Daily Observations

      DateTemp High/LowDew Pt High/LowHumidityWindMax WindWind GustPressurePrecip.Condition
      7/1/2026 93 °F / 67 °F 26 °F / 17 °F 11 % 16 mph - 26.85 in 0 in
      7/2/2026 95 °F / 68 °F 33 °F / 23 °F 14 % 17 mph - 26.91 in 0 in
      7/3/2026 97 °F / 70 °F 34 °F / 17 °F 12 % 18 mph - 26.97 in 0 in
      7/4/2026 101 °F / 68 °F 22 °F / 9 °F 9 % 14 mph - 27.01 in 0 in
      7/5/2026 101 °F / 71 °F 44 °F / 10 °F 11 % 15 mph - 26.96 in 0 in
      7/6/2026 103 °F / 79 °F 43 °F / 36 °F 17 % 17 mph - 26.92 in 0 in
      7/7/2026 106 °F / 79 °F 46 °F / 37 °F 18 % 29 mph - 26.94 in 0 in
      7/8/2026 106 °F / 78 °F 42 °F / 33 °F 15 % 21 mph - 26.95 in 0 in
      7/9/2026 107 °F / 77 °F 38 °F / 21 °F 12 % 17 mph - 26.88 in 0 in
      7/10/2026 105 °F / 75 °F 38 °F / 19 °F 11 % 16 mph - 26.87 in 0 in
      7/11/2026 107 °F / 78 °F 41 °F / 32 °F 14 % 14 mph - 26.94 in 0 in
      7/12/2026 104 °F / 79 °F 59 °F / 31 °F 21 % 43 mph - 26.96 in 0.04 in
      7/13/2026 102 °F / 82 °F 57 °F / 51 °F 30 % 29 mph - 27 in 0 in
      7/14/2026 103 °F / 82 °F 59 °F / 52 °F 30 % 15 mph - 26.99 in 0 in
      7/15/2026 104 °F / 83 °F 61 °F / 54 °F 29 % 24 mph - 26.92 in 0 in
      7/16/2026 96 °F / 78 °F 65 °F / 56 °F 42 % 23 mph - 26.93 in 0 in
      7/17/2026 100 °F / 78 °F 66 °F / 57 °F 43 % 29 mph - 26.98 in 0 in
      7/18/2026 101 °F / 80 °F 67 °F / 58 °F 42 % 38 mph - 26.98 in 0 in
      7/19/2026 100 °F / 81 °F 64 °F / 58 °F 40 % 17 mph - 26.97 in 0 in
      7/20/2026 104 °F / 80 °F 62 °F / 53 °F 33 % 16 mph - 26.93 in 0 in
      7/21/2026 95 °F / 79 °F 63 °F / 56 °F 40 % 33 mph - 26.98 in 0 in
      7/22/2026 103 °F / 80 °F 64 °F / 54 °F 39 % 38 mph - 26.97 in 0 in
      7/23/2026 107 °F / 80 °F 63 °F / 50 °F 31 % 24 mph - 26.96 in 0 in
      7/24/2026 108 °F / 85 °F 59 °F / 48 °F 26 % 15 mph - 26.95 in 0 in
      7/25/2026 109 °F / 84 °F 56 °F / 44 °F 22 % 14 mph - 26.95 in 0 in
      7/26/2026 100 °F / 88 °F 58 °F / 51 °F 26 % 21 mph - 26.97 in 0 in
      7/27/2026 106 °F / 80 °F 55 °F / 47 °F 26 % 20 mph - 26.94 in 0 in
      7/28/2026 106 °F / 83 °F 61 °F / 49 °F 28 % 41 mph - 26.9 in 0 in
      7/29/2026 92 °F / 73 °F 69 °F / 59 °F 49 % 23 mph - 26.94 in 0.41 in
      7/30/2026 104 °F / 75 °F 67 °F / 41 °F 40 % 10 mph - 26.97 in 0 in
      7/31/2026 108 °F / 76 °F 49 °F / 29 °F 19 % 14 mph - 27.01 in 0 in
      essentialaccessibility.com
      We recognize our responsibility to use data and technology for good. We may use or share your data with our data vendors. Take control of your data.
      Glossary